Aviation Digital Data Service (ADDS)

Output produced by METARs form (0307 UTC 29 March 2015)
found at http://www.aviationweather.gov/adds/metars/
 
KFIG 290254Z AUTO VRB06KT 10SM CLR M07/M16 A3020 RMK AO2 SLP252 T10721161 51025
KFIG 290154Z AUTO 30006KT 10SM CLR M07/M17 A3018 RMK AO2 SLP246 T10671167
KFIG 290054Z AUTO 32009KT 10SM CLR M06/M17 A3015 RMK AO2 SLP237 T10611172
KFIG 282354Z AUTO 32014G19KT 10SM CLR M06/M17 A3012 RMK AO2 SLP225 60000 T10561167 11017 21056 53033
KFIG 282254Z AUTO 32010G15KT 10SM CLR M04/M17 A3008 RMK AO2 SLP211 T10391172
KFIG 282154Z AUTO 32014G22KT 10SM CLR M03/M17 A3005 RMK AO2 SLP197 T10281167
KFIG 282054Z AUTO 34013G19KT 10SM BKN060 M02/M16 A3002 RMK AO2 PK WND 30029/1955 UPB49E52 SLP187 P0000 60000 T10221156 53003
KFIG 281954Z AUTO 30010G24KT 270V330 10SM BKN060 M02/M14 A3000 RMK AO2 PK WND 35026/1930 UPE20 SLP182 P0000 T10221144
KFIG 281854Z AUTO 32015G24KT 10SM UP BKN047 OVC055 M04/M14 A3001 RMK AO2 UPB28 SLP182 P0000 T10391144
KFIG 281754Z AUTO 30013G19KT 10SM SCT037 OVC047 M04/M12 A3001 RMK AO2 UPB1655E1656SNE1655B08E16 SLP185 P0000 60000 T10441122 11039 21083 58001
KFIG 281654Z AUTO 30013KT 9SM -SN BKN034 OVC044 M06/M12 A3002 RMK AO2 UPB38E44SNB44 SLP186 P0000 T10561122
KFIG 281554Z AUTO 34009G20KT 300V360 10SM OVC031 M06/M13 A3002 RMK AO2 UPB04E48SNE04 SLP186 P0000 T10561128
KFIG 281454Z AUTO 31011KT 10SM -SN OVC031 M07/M13 A3002 RMK AO2 UPE53SNB53 SLP186 P0000 60000 T10671128 51018
KFIG 281413Z AUTO 33008KT 290V360 10SM UP OVC031 M07/M13 A3001 RMK AO2 P0000 T10721128
KFIG 281354Z AUTO 34009KT 10SM UP OVC027 M07/M13 A3000 RMK AO2 UPB02E25B32 SLP182 P0000 T10721128
KFIG 281343Z AUTO 32010G17KT 10SM UP BKN026 OVC034 M07/M13 A3000 RMK AO2 UPB02E25B32 P0000 T10721128
KFIG 281254Z AUTO 32009KT 5SM HZ FEW025 BKN034 OVC050 M08/M13 A2998 RMK AO2 UPB15E25SNB03E15B42E52 SLP175 P0000 T10781128
KFIG 281154Z AUTO 33007KT 290V360 7SM BKN044 OVC050 M08/M13 A2996 RMK AO2 UPB39E49SNE1057 SLP167 P0000 60000 T10831128 11056 21089 53023
KFIG 281102Z AUTO 34010KT 9SM FEW018 SCT032 OVC070 M08/M12 A2994 RMK AO2 SNE1057 P0000 T10831122
KFIG 281054Z AUTO 34006KT 9SM -SN SCT018 BKN025 BKN032 M08/M12 A2994 RMK AO2 SNB28 SLP158 P0000 T10831122
KFIG 280954Z AUTO 28005KT 8SM OVC016 M08/M12 A2990 RMK AO2 UPB06E18SNB18E47 SLP147 P0000 T10831122
KFIG 280922Z AUTO 32010KT 7SM -SN BKN022 BKN027 OVC065 M08/M12 A2990 RMK AO2 UPB06E18SNB18 P0000 T10781117
KFIG 280854Z AUTO 32006KT 10SM FEW013 FEW020 OVC065 M07/M12 A2989 RMK AO2 UPB36E44SNE26 SLP140 P0000 60000 T10721117 55002
KFIG 280835Z AUTO 31011G16KT 10SM FEW013 SCT020 OVC065 M07/M11 A2989 RMK AO2 SNE26 P0000 T10721111
KFIG 280754Z AUTO VRB06KT 5SM -SN SCT020 BKN028 OVC033 M07/M10 A2989 RMK AO2 UPE0655SNB0658 SLP140 P0000 T10671100
KFIG 280750Z AUTO 33005KT 5SM -SN SCT022 OVC030 M07/M10 A2989 RMK AO2 UPE0655SNB0658 P0000
KFIG 280654Z AUTO 31008KT 10SM UP OVC029 M06/M11 A2990 RMK AO2 UPB34 SLP142 P0000 T10611106
KFIG 280646Z AUTO 31009KT 10SM UP BKN029 OVC060 M06/M11 A2990 RMK AO2 UPB34 P0000 T10611111
KFIG 280554Z AUTO 32010KT 10SM OVC060 M06/M11 A2990 RMK AO2 UPB25E40 SLP143 P0000 60000 T10561111 11017 21056 50006
KFIG 280540Z AUTO 33010G15KT 10SM SCT024 OVC060 M06/M11 A2990 RMK AO2 UPB25E40 P0000 T10561111
KFIG 280510Z AUTO 29005KT 10SM BKN024 OVC055 M05/M11 A2991 RMK AO2 T10501106
KFIG 280454Z AUTO 31007KT 280V360 10SM FEW024 OVC055 M05/M11 A2991 RMK AO2 UPE0359 SLP143 P0000 T10501106 400281050
KFIG 280354Z AUTO 32008G17KT 300V360 10SM UP OVC055 M04/M10 A2990 RMK AO2 UPB16SNE16 SLP140 P0000 T10441100
KFIG 280254Z AUTO 31013G21KT 7SM -SN OVC050 M04/M08 A2988 RMK AO2 UPB30E48SNB39E40B48 SLP136 P0000 60000 T10391083 51015
KFIG 280154Z AUTO 29006KT 10SM OVC050 M03/M08 A2987 RMK AO2 UPB0057E0059SNE0057 SLP131 P0000 T10281083
KFIG 280054Z AUTO 34010KT 8SM -SN FEW029 BKN043 OVC055 M02/M07 A2985 RMK AO2 SNB27 SLP125 P0000 T10221072
KFIG 272354Z AUTO 32013KT 10SM OVC055 M02/M08 A2984 RMK AO2 SLP119 60000 T10171078 10022 21017 53017
KFIG 272254Z AUTO 30013G17KT 10SM OVC050 M01/M07 A2982 RMK AO2 SLP112 T10061072
KFIG 272154Z AUTO 30011KT 10SM OVC044 01/M07 A2981 RMK AO2 SLP107 T00061072
KFIG 272054Z AUTO 30010G17KT 10SM BKN040 OVC048 01/M06 A2979 RMK AO2 SLP099 60000 T00111061 55001
KFIG 271954Z AUTO 29007KT 10SM OVC042 02/M05 A2977 RMK AO2 UPB14E25 SLP094 P0000 T00221050
KFIG 271854Z AUTO 30010KT 10SM FEW031 OVC041 02/M05 A2978 RMK AO2 UPB38E48 SLP098 P0000 T00171050
KFIG 271754Z AUTO 30011KT 10SM SCT034 OVC042 02/M04 A2979 RMK AO2 SLP099 60000 T00221044 10028 20000 58002
KFIG 271654Z AUTO 29009KT 10SM OVC044 03/M05 A2980 RMK AO2 SLP103 T00281050
KFIG 271554Z AUTO 30009KT 10SM OVC043 02/M06 A2982 RMK AO2 SLP109 T00221056